sensor_id;sensor_type;location;lat;lon;timestamp;P1;durP1;ratioP1;P2;durP2;ratioP2
21480;SDS011;10902;48.158;8.634;2023-03-11T00:00:36;4.38;;;2.20;;
21480;SDS011;10902;48.158;8.634;2023-03-11T00:03:05;5.93;;;2.53;;
21480;SDS011;10902;48.158;8.634;2023-03-11T00:05:33;4.20;;;2.05;;
21480;SDS011;10902;48.158;8.634;2023-03-11T00:08:01;5.13;;;2.55;;
21480;SDS011;10902;48.158;8.634;2023-03-11T00:10:28;4.82;;;2.58;;
21480;SDS011;10902;48.158;8.634;2023-03-11T00:12:56;4.05;;;2.22;;
21480;SDS011;10902;48.158;8.634;2023-03-11T00:15:23;6.13;;;2.83;;
21480;SDS011;10902;48.158;8.634;2023-03-11T00:17:49;4.78;;;2.35;;
21480;SDS011;10902;48.158;8.634;2023-03-11T00:20:21;4.82;;;2.33;;
21480;SDS011;10902;48.158;8.634;2023-03-11T00:22:47;6.28;;;2.70;;
21480;SDS011;10902;48.158;8.634;2023-03-11T00:25:13;4.75;;;2.75;;
21480;SDS011;10902;48.158;8.634;2023-03-11T00:27:38;5.50;;;3.00;;
21480;SDS011;10902;48.158;8.634;2023-03-11T00:30:04;4.40;;;2.53;;
21480;SDS011;10902;48.158;8.634;2023-03-11T00:32:30;5.47;;;2.60;;
21480;SDS011;10902;48.158;8.634;2023-03-11T00:34:56;5.32;;;3.05;;
21480;SDS011;10902;48.158;8.634;2023-03-11T00:37:22;5.45;;;2.92;;
21480;SDS011;10902;48.158;8.634;2023-03-11T00:39:48;5.32;;;2.88;;
21480;SDS011;10902;48.158;8.634;2023-03-11T00:42:13;4.88;;;2.63;;
21480;SDS011;10902;48.158;8.634;2023-03-11T00:44:39;6.60;;;3.00;;
21480;SDS011;10902;48.158;8.634;2023-03-11T00:47:04;6.50;;;2.95;;
21480;SDS011;10902;48.158;8.634;2023-03-11T00:49:30;5.53;;;2.53;;
21480;SDS011;10902;48.158;8.634;2023-03-11T00:51:56;4.88;;;3.05;;
21480;SDS011;10902;48.158;8.634;2023-03-11T00:54:22;4.63;;;2.58;;
21480;SDS011;10902;48.158;8.634;2023-03-11T00:56:47;6.57;;;2.78;;
21480;SDS011;10902;48.158;8.634;2023-03-11T00:59:13;5.18;;;2.60;;
21480;SDS011;10902;48.158;8.634;2023-03-11T01:01:38;6.75;;;2.72;;
21480;SDS011;10902;48.158;8.634;2023-03-11T01:04:04;5.90;;;3.05;;
21480;SDS011;10902;48.158;8.634;2023-03-11T01:06:30;4.93;;;2.60;;
21480;SDS011;10902;48.158;8.634;2023-03-11T01:08:55;5.38;;;2.83;;
21480;SDS011;10902;48.158;8.634;2023-03-11T01:11:21;5.22;;;2.72;;
21480;SDS011;10902;48.158;8.634;2023-03-11T01:13:46;4.95;;;2.95;;
21480;SDS011;10902;48.158;8.634;2023-03-11T01:16:12;5.30;;;3.13;;
21480;SDS011;10902;48.158;8.634;2023-03-11T01:18:37;6.10;;;3.30;;
21480;SDS011;10902;48.158;8.634;2023-03-11T01:21:03;5.88;;;3.50;;
21480;SDS011;10902;48.158;8.634;2023-03-11T01:23:29;5.00;;;3.05;;
21480;SDS011;10902;48.158;8.634;2023-03-11T01:25:56;4.82;;;2.67;;
21480;SDS011;10902;48.158;8.634;2023-03-11T01:28:22;6.20;;;3.03;;
21480;SDS011;10902;48.158;8.634;2023-03-11T01:30:47;5.25;;;2.97;;
21480;SDS011;10902;48.158;8.634;2023-03-11T01:33:14;4.70;;;2.67;;
21480;SDS011;10902;48.158;8.634;2023-03-11T01:35:42;5.85;;;3.05;;
21480;SDS011;10902;48.158;8.634;2023-03-11T01:38:08;6.43;;;3.17;;
21480;SDS011;10902;48.158;8.634;2023-03-11T01:40:35;4.47;;;2.80;;
21480;SDS011;10902;48.158;8.634;2023-03-11T01:51:40;6.40;;;2.72;;
21480;SDS011;10902;48.158;8.634;2023-03-11T01:54:26;5.82;;;3.03;;
21480;SDS011;10902;48.158;8.634;2023-03-11T01:56:54;4.25;;;2.15;;
21480;SDS011;10902;48.158;8.634;2023-03-11T01:59:23;5.22;;;2.55;;
21480;SDS011;10902;48.158;8.634;2023-03-11T02:02:13;5.20;;;2.20;;
21480;SDS011;10902;48.158;8.634;2023-03-11T02:04:44;5.65;;;2.47;;
21480;SDS011;10902;48.158;8.634;2023-03-11T02:07:10;4.32;;;2.05;;
21480;SDS011;10902;48.158;8.634;2023-03-11T02:09:37;4.63;;;2.13;;
21480;SDS011;10902;48.158;8.634;2023-03-11T02:12:03;5.60;;;2.40;;
21480;SDS011;10902;48.158;8.634;2023-03-11T02:14:29;5.10;;;2.00;;
21480;SDS011;10902;48.158;8.634;2023-03-11T02:16:56;4.90;;;2.33;;
21480;SDS011;10902;48.158;8.634;2023-03-11T02:22:06;4.07;;;2.38;;
21480;SDS011;10902;48.158;8.634;2023-03-11T02:27:09;4.45;;;2.28;;
21480;SDS011;10902;48.158;8.634;2023-03-11T02:29:36;5.00;;;2.45;;
21480;SDS011;10902;48.158;8.634;2023-03-11T02:32:03;4.07;;;2.03;;
21480;SDS011;10902;48.158;8.634;2023-03-11T02:34:33;5.65;;;2.50;;
21480;SDS011;10902;48.158;8.634;2023-03-11T02:37:02;7.30;;;2.85;;
21480;SDS011;10902;48.158;8.634;2023-03-11T02:41:56;4.38;;;2.35;;
21480;SDS011;10902;48.158;8.634;2023-03-11T02:44:23;6.47;;;2.30;;
21480;SDS011;10902;48.158;8.634;2023-03-11T02:46:49;5.20;;;2.15;;
21480;SDS011;10902;48.158;8.634;2023-03-11T02:49:16;4.10;;;2.05;;
21480;SDS011;10902;48.158;8.634;2023-03-11T02:51:42;5.00;;;2.20;;
21480;SDS011;10902;48.158;8.634;2023-03-11T02:54:07;5.88;;;2.53;;
21480;SDS011;10902;48.158;8.634;2023-03-11T02:56:33;5.00;;;2.58;;
21480;SDS011;10902;48.158;8.634;2023-03-11T02:58:59;4.93;;;2.60;;
21480;SDS011;10902;48.158;8.634;2023-03-11T03:01:24;5.07;;;2.35;;
21480;SDS011;10902;48.158;8.634;2023-03-11T03:03:50;5.50;;;2.30;;
21480;SDS011;10902;48.158;8.634;2023-03-11T03:06:16;5.30;;;2.45;;
21480;SDS011;10902;48.158;8.634;2023-03-11T03:08:41;6.20;;;2.35;;
21480;SDS011;10902;48.158;8.634;2023-03-11T03:11:07;5.60;;;2.00;;
21480;SDS011;10902;48.158;8.634;2023-03-11T03:13:32;5.82;;;1.88;;
21480;SDS011;10902;48.158;8.634;2023-03-11T03:15:58;3.95;;;2.00;;
21480;SDS011;10902;48.158;8.634;2023-03-11T03:18:24;3.55;;;1.75;;
21480;SDS011;10902;48.158;8.634;2023-03-11T03:20:50;4.38;;;1.92;;
21480;SDS011;10902;48.158;8.634;2023-03-11T03:23:17;5.00;;;1.75;;
21480;SDS011;10902;48.158;8.634;2023-03-11T03:25:43;4.13;;;1.73;;
21480;SDS011;10902;48.158;8.634;2023-03-11T03:28:09;5.45;;;1.83;;
21480;SDS011;10902;48.158;8.634;2023-03-11T03:30:36;4.10;;;1.63;;
21480;SDS011;10902;48.158;8.634;2023-03-11T03:33:02;4.50;;;1.80;;
21480;SDS011;10902;48.158;8.634;2023-03-11T03:35:28;4.72;;;1.60;;
21480;SDS011;10902;48.158;8.634;2023-03-11T03:37:54;4.90;;;1.90;;
21480;SDS011;10902;48.158;8.634;2023-03-11T03:40:19;4.82;;;1.92;;
21480;SDS011;10902;48.158;8.634;2023-03-11T03:42:45;4.05;;;1.65;;
21480;SDS011;10902;48.158;8.634;2023-03-11T03:45:11;4.28;;;1.83;;
21480;SDS011;10902;48.158;8.634;2023-03-11T03:47:36;4.40;;;1.75;;
21480;SDS011;10902;48.158;8.634;2023-03-11T03:50:03;3.92;;;1.90;;
21480;SDS011;10902;48.158;8.634;2023-03-11T03:52:29;3.92;;;1.60;;
21480;SDS011;10902;48.158;8.634;2023-03-11T03:54:55;4.18;;;1.63;;
21480;SDS011;10902;48.158;8.634;2023-03-11T03:57:21;7.07;;;1.60;;
21480;SDS011;10902;48.158;8.634;2023-03-11T03:59:46;3.67;;;1.40;;
21480;SDS011;10902;48.158;8.634;2023-03-11T04:02:12;5.63;;;1.52;;
21480;SDS011;10902;48.158;8.634;2023-03-11T04:04:37;6.03;;;1.45;;
21480;SDS011;10902;48.158;8.634;2023-03-11T04:07:04;4.95;;;1.48;;
21480;SDS011;10902;48.158;8.634;2023-03-11T04:09:30;3.65;;;1.42;;
21480;SDS011;10902;48.158;8.634;2023-03-11T04:11:56;3.45;;;1.27;;
21480;SDS011;10902;48.158;8.634;2023-03-11T04:14:23;3.80;;;1.30;;
21480;SDS011;10902;48.158;8.634;2023-03-11T04:16:49;3.30;;;1.27;;
21480;SDS011;10902;48.158;8.634;2023-03-11T04:19:15;3.88;;;1.40;;
21480;SDS011;10902;48.158;8.634;2023-03-11T04:21:40;5.00;;;1.50;;
21480;SDS011;10902;48.158;8.634;2023-03-11T04:24:06;7.05;;;1.58;;
21480;SDS011;10902;48.158;8.634;2023-03-11T04:26:32;4.57;;;1.30;;
21480;SDS011;10902;48.158;8.634;2023-03-11T04:28:58;3.30;;;1.40;;
21480;SDS011;10902;48.158;8.634;2023-03-11T04:31:23;4.65;;;1.50;;
21480;SDS011;10902;48.158;8.634;2023-03-11T04:33:49;3.92;;;1.30;;
21480;SDS011;10902;48.158;8.634;2023-03-11T04:36:14;3.00;;;1.23;;
21480;SDS011;10902;48.158;8.634;2023-03-11T04:38:40;4.63;;;1.65;;
21480;SDS011;10902;48.158;8.634;2023-03-11T04:41:06;6.72;;;1.52;;
21480;SDS011;10902;48.158;8.634;2023-03-11T04:43:32;4.45;;;1.30;;
21480;SDS011;10902;48.158;8.634;2023-03-11T04:45:58;3.78;;;1.33;;
21480;SDS011;10902;48.158;8.634;2023-03-11T04:48:23;4.22;;;1.50;;
21480;SDS011;10902;48.158;8.634;2023-03-11T04:50:51;3.80;;;2.00;;
21480;SDS011;10902;48.158;8.634;2023-03-11T04:53:17;6.05;;;1.77;;
21480;SDS011;10902;48.158;8.634;2023-03-11T04:55:42;4.50;;;1.65;;
21480;SDS011;10902;48.158;8.634;2023-03-11T04:58:08;4.75;;;1.58;;
21480;SDS011;10902;48.158;8.634;2023-03-11T05:00:34;5.45;;;1.75;;
21480;SDS011;10902;48.158;8.634;2023-03-11T05:02:59;3.97;;;1.73;;
21480;SDS011;10902;48.158;8.634;2023-03-11T05:05:25;4.55;;;1.73;;
21480;SDS011;10902;48.158;8.634;2023-03-11T05:07:50;5.45;;;1.90;;
21480;SDS011;10902;48.158;8.634;2023-03-11T05:10:16;5.85;;;2.05;;
21480;SDS011;10902;48.158;8.634;2023-03-11T05:12:46;4.80;;;1.63;;
21480;SDS011;10902;48.158;8.634;2023-03-11T05:15:12;4.50;;;2.10;;
21480;SDS011;10902;48.158;8.634;2023-03-11T05:17:38;3.92;;;1.80;;
21480;SDS011;10902;48.158;8.634;2023-03-11T05:20:03;3.63;;;1.70;;
21480;SDS011;10902;48.158;8.634;2023-03-11T05:22:32;5.78;;;2.35;;
21480;SDS011;10902;48.158;8.634;2023-03-11T05:24:58;7.70;;;2.75;;
21480;SDS011;10902;48.158;8.634;2023-03-11T05:27:24;7.43;;;1.92;;
21480;SDS011;10902;48.158;8.634;2023-03-11T05:29:49;5.45;;;2.47;;
21480;SDS011;10902;48.158;8.634;2023-03-11T05:32:15;4.43;;;2.00;;
21480;SDS011;10902;48.158;8.634;2023-03-11T05:34:43;5.88;;;2.10;;
21480;SDS011;10902;48.158;8.634;2023-03-11T05:37:09;5.25;;;2.30;;
21480;SDS011;10902;48.158;8.634;2023-03-11T05:39:34;8.00;;;2.28;;
21480;SDS011;10902;48.158;8.634;2023-03-11T05:42:01;6.70;;;2.55;;
21480;SDS011;10902;48.158;8.634;2023-03-11T05:44:28;7.82;;;2.22;;
21480;SDS011;10902;48.158;8.634;2023-03-11T05:46:54;6.50;;;2.35;;
21480;SDS011;10902;48.158;8.634;2023-03-11T05:49:19;5.63;;;2.00;;
21480;SDS011;10902;48.158;8.634;2023-03-11T05:51:45;5.45;;;2.47;;
21480;SDS011;10902;48.158;8.634;2023-03-11T05:54:11;5.50;;;1.83;;
21480;SDS011;10902;48.158;8.634;2023-03-11T05:56:39;6.68;;;2.67;;
21480;SDS011;10902;48.158;8.634;2023-03-11T05:59:06;10.15;;;2.53;;
21480;SDS011;10902;48.158;8.634;2023-03-11T06:01:32;7.07;;;1.70;;
21480;SDS011;10902;48.158;8.634;2023-03-11T06:03:59;5.68;;;1.70;;
21480;SDS011;10902;48.158;8.634;2023-03-11T06:06:24;6.45;;;1.50;;
21480;SDS011;10902;48.158;8.634;2023-03-11T06:08:50;6.43;;;2.88;;
21480;SDS011;10902;48.158;8.634;2023-03-11T06:11:16;5.82;;;1.60;;
21480;SDS011;10902;48.158;8.634;2023-03-11T06:13:42;5.00;;;1.58;;
21480;SDS011;10902;48.158;8.634;2023-03-11T06:16:07;6.97;;;1.70;;
21480;SDS011;10902;48.158;8.634;2023-03-11T06:18:33;4.45;;;1.40;;
21480;SDS011;10902;48.158;8.634;2023-03-11T06:21:00;4.00;;;1.67;;
21480;SDS011;10902;48.158;8.634;2023-03-11T06:23:28;5.90;;;1.70;;
21480;SDS011;10902;48.158;8.634;2023-03-11T06:26:03;4.78;;;1.80;;
21480;SDS011;10902;48.158;8.634;2023-03-11T06:28:30;5.38;;;1.98;;
21480;SDS011;10902;48.158;8.634;2023-03-11T06:30:56;6.45;;;1.95;;
21480;SDS011;10902;48.158;8.634;2023-03-11T06:33:31;7.32;;;1.98;;
21480;SDS011;10902;48.158;8.634;2023-03-11T06:36:00;5.35;;;1.90;;
21480;SDS011;10902;48.158;8.634;2023-03-11T06:38:27;6.35;;;1.95;;
21480;SDS011;10902;48.158;8.634;2023-03-11T06:40:53;4.93;;;1.60;;
21480;SDS011;10902;48.158;8.634;2023-03-11T06:43:18;4.05;;;1.48;;
21480;SDS011;10902;48.158;8.634;2023-03-11T06:45:46;5.32;;;1.67;;
21480;SDS011;10902;48.158;8.634;2023-03-11T06:48:11;5.32;;;1.58;;
21480;SDS011;10902;48.158;8.634;2023-03-11T06:50:37;3.90;;;1.65;;
21480;SDS011;10902;48.158;8.634;2023-03-11T06:53:02;3.50;;;1.40;;
21480;SDS011;10902;48.158;8.634;2023-03-11T06:55:31;7.05;;;1.98;;
21480;SDS011;10902;48.158;8.634;2023-03-11T06:57:57;5.25;;;1.73;;
21480;SDS011;10902;48.158;8.634;2023-03-11T07:00:23;5.30;;;1.77;;
21480;SDS011;10902;48.158;8.634;2023-03-11T07:02:48;5.78;;;2.17;;
21480;SDS011;10902;48.158;8.634;2023-03-11T07:05:14;4.72;;;1.45;;
21480;SDS011;10902;48.158;8.634;2023-03-11T07:07:39;5.78;;;1.40;;
21480;SDS011;10902;48.158;8.634;2023-03-11T07:10:05;7.65;;;2.40;;
21480;SDS011;10902;48.158;8.634;2023-03-11T07:12:31;5.65;;;1.48;;
21480;SDS011;10902;48.158;8.634;2023-03-11T07:14:57;4.07;;;1.48;;
21480;SDS011;10902;48.158;8.634;2023-03-11T07:17:23;3.90;;;1.30;;
21480;SDS011;10902;48.158;8.634;2023-03-11T07:19:49;3.50;;;1.50;;
21480;SDS011;10902;48.158;8.634;2023-03-11T07:22:15;5.70;;;1.95;;
21480;SDS011;10902;48.158;8.634;2023-03-11T07:24:44;4.43;;;1.30;;
21480;SDS011;10902;48.158;8.634;2023-03-11T07:27:10;4.22;;;1.42;;
21480;SDS011;10902;48.158;8.634;2023-03-11T07:29:36;4.78;;;1.45;;
21480;SDS011;10902;48.158;8.634;2023-03-11T07:32:01;14.65;;;2.40;;
21480;SDS011;10902;48.158;8.634;2023-03-11T07:34:27;6.55;;;1.92;;
21480;SDS011;10902;48.158;8.634;2023-03-11T07:36:52;4.32;;;1.70;;
21480;SDS011;10902;48.158;8.634;2023-03-11T07:39:18;4.20;;;1.35;;
21480;SDS011;10902;48.158;8.634;2023-03-11T07:41:44;6.70;;;1.35;;
21480;SDS011;10902;48.158;8.634;2023-03-11T07:44:11;3.67;;;1.00;;
21480;SDS011;10902;48.158;8.634;2023-03-11T07:46:37;3.80;;;1.35;;
21480;SDS011;10902;48.158;8.634;2023-03-11T07:49:03;4.93;;;1.60;;
21480;SDS011;10902;48.158;8.634;2023-03-11T07:51:29;7.65;;;2.55;;
21480;SDS011;10902;48.158;8.634;2023-03-11T07:53:57;4.65;;;1.48;;
21480;SDS011;10902;48.158;8.634;2023-03-11T07:56:24;5.60;;;1.83;;
21480;SDS011;10902;48.158;8.634;2023-03-11T07:58:51;5.78;;;1.70;;
21480;SDS011;10902;48.158;8.634;2023-03-11T08:01:18;3.22;;;1.30;;
21480;SDS011;10902;48.158;8.634;2023-03-11T08:03:46;3.03;;;1.20;;
21480;SDS011;10902;48.158;8.634;2023-03-11T08:06:14;4.15;;;1.50;;
21480;SDS011;10902;48.158;8.634;2023-03-11T08:08:42;4.00;;;1.58;;
21480;SDS011;10902;48.158;8.634;2023-03-11T08:11:09;4.80;;;1.40;;
21480;SDS011;10902;48.158;8.634;2023-03-11T08:13:35;5.13;;;1.33;;
21480;SDS011;10902;48.158;8.634;2023-03-11T08:16:04;6.68;;;1.60;;
21480;SDS011;10902;48.158;8.634;2023-03-11T08:18:30;5.72;;;1.67;;
21480;SDS011;10902;48.158;8.634;2023-03-11T08:20:57;7.45;;;2.08;;
21480;SDS011;10902;48.158;8.634;2023-03-11T08:23:23;5.05;;;1.95;;
21480;SDS011;10902;48.158;8.634;2023-03-11T08:25:48;4.45;;;1.98;;
21480;SDS011;10902;48.158;8.634;2023-03-11T08:28:14;7.15;;;1.50;;
21480;SDS011;10902;48.158;8.634;2023-03-11T08:30:40;3.92;;;1.33;;
21480;SDS011;10902;48.158;8.634;2023-03-11T08:33:06;4.55;;;1.40;;
21480;SDS011;10902;48.158;8.634;2023-03-11T08:35:31;5.85;;;1.50;;
21480;SDS011;10902;48.158;8.634;2023-03-11T08:37:57;6.47;;;1.75;;
21480;SDS011;10902;48.158;8.634;2023-03-11T08:40:23;4.30;;;1.63;;
21480;SDS011;10902;48.158;8.634;2023-03-11T08:42:48;6.13;;;1.83;;
21480;SDS011;10902;48.158;8.634;2023-03-11T08:45:14;6.70;;;1.65;;
21480;SDS011;10902;48.158;8.634;2023-03-11T08:47:40;4.28;;;1.52;;
21480;SDS011;10902;48.158;8.634;2023-03-11T08:50:08;6.95;;;2.20;;
21480;SDS011;10902;48.158;8.634;2023-03-11T08:52:38;6.35;;;1.45;;
21480;SDS011;10902;48.158;8.634;2023-03-11T08:55:03;5.05;;;1.20;;
21480;SDS011;10902;48.158;8.634;2023-03-11T08:57:30;3.95;;;1.40;;
21480;SDS011;10902;48.158;8.634;2023-03-11T08:59:56;5.10;;;1.27;;
21480;SDS011;10902;48.158;8.634;2023-03-11T09:02:23;4.35;;;1.30;;
21480;SDS011;10902;48.158;8.634;2023-03-11T09:04:49;5.40;;;1.20;;
21480;SDS011;10902;48.158;8.634;2023-03-11T09:07:14;4.70;;;1.00;;
21480;SDS011;10902;48.158;8.634;2023-03-11T09:09:41;3.67;;;1.27;;
21480;SDS011;10902;48.158;8.634;2023-03-11T09:12:07;4.38;;;1.13;;
21480;SDS011;10902;48.158;8.634;2023-03-11T09:14:33;3.03;;;1.10;;
21480;SDS011;10902;48.158;8.634;2023-03-11T09:16:59;4.05;;;1.13;;
21480;SDS011;10902;48.158;8.634;2023-03-11T09:19:25;6.10;;;1.40;;
21480;SDS011;10902;48.158;8.634;2023-03-11T09:21:50;4.32;;;1.20;;
21480;SDS011;10902;48.158;8.634;2023-03-11T09:24:16;5.15;;;1.50;;
21480;SDS011;10902;48.158;8.634;2023-03-11T09:26:42;4.03;;;1.10;;
21480;SDS011;10902;48.158;8.634;2023-03-11T09:29:07;4.25;;;1.20;;
21480;SDS011;10902;48.158;8.634;2023-03-11T09:31:33;3.30;;;1.10;;
21480;SDS011;10902;48.158;8.634;2023-03-11T09:33:58;3.75;;;1.10;;
21480;SDS011;10902;48.158;8.634;2023-03-11T09:36:24;4.38;;;1.27;;
21480;SDS011;10902;48.158;8.634;2023-03-11T09:38:49;4.18;;;1.15;;
21480;SDS011;10902;48.158;8.634;2023-03-11T09:46:54;5.53;;;1.10;;
21480;SDS011;10902;48.158;8.634;2023-03-11T09:52:10;2.88;;;1.08;;
21480;SDS011;10902;48.158;8.634;2023-03-11T09:54:39;6.63;;;2.53;;
21480;SDS011;10902;48.158;8.634;2023-03-11T09:57:08;4.18;;;1.40;;
21480;SDS011;10902;48.158;8.634;2023-03-11T09:59:38;5.93;;;3.13;;
21480;SDS011;10902;48.158;8.634;2023-03-11T10:02:09;5.60;;;1.90;;
21480;SDS011;10902;48.158;8.634;2023-03-11T10:04:42;3.97;;;1.42;;
21480;SDS011;10902;48.158;8.634;2023-03-11T10:07:35;3.88;;;1.20;;
21480;SDS011;10902;48.158;8.634;2023-03-11T10:10:05;4.63;;;1.10;;
21480;SDS011;10902;48.158;8.634;2023-03-11T10:12:41;3.90;;;1.25;;
21480;SDS011;10902;48.158;8.634;2023-03-11T10:17:45;4.25;;;0.95;;
21480;SDS011;10902;48.158;8.634;2023-03-11T10:28:30;3.65;;;0.82;;
21480;SDS011;10902;48.158;8.634;2023-03-11T10:31:01;4.15;;;0.90;;
21480;SDS011;10902;48.158;8.634;2023-03-11T10:36:20;2.85;;;0.73;;
21480;SDS011;10902;48.158;8.634;2023-03-11T10:38:51;4.50;;;0.80;;
21480;SDS011;10902;48.158;8.634;2023-03-11T10:43:56;2.70;;;0.70;;
21480;SDS011;10902;48.158;8.634;2023-03-11T10:46:28;3.58;;;1.02;;
21480;SDS011;10902;48.158;8.634;2023-03-11T10:48:54;3.08;;;0.90;;
21480;SDS011;10902;48.158;8.634;2023-03-11T10:51:26;3.28;;;1.17;;
21480;SDS011;10902;48.158;8.634;2023-03-11T10:53:58;2.67;;;0.80;;
21480;SDS011;10902;48.158;8.634;2023-03-11T10:58:55;3.70;;;0.95;;
21480;SDS011;10902;48.158;8.634;2023-03-11T11:01:21;4.43;;;0.82;;
21480;SDS011;10902;48.158;8.634;2023-03-11T11:03:49;4.40;;;1.15;;
21480;SDS011;10902;48.158;8.634;2023-03-11T11:06:26;2.80;;;0.90;;
21480;SDS011;10902;48.158;8.634;2023-03-11T11:11:40;3.92;;;0.85;;
21480;SDS011;10902;48.158;8.634;2023-03-11T11:14:07;3.60;;;1.00;;
21480;SDS011;10902;48.158;8.634;2023-03-11T11:16:34;3.00;;;0.95;;
21480;SDS011;10902;48.158;8.634;2023-03-11T11:21:44;3.35;;;0.80;;
21480;SDS011;10902;48.158;8.634;2023-03-11T11:24:21;4.78;;;1.27;;
21480;SDS011;10902;48.158;8.634;2023-03-11T11:30:33;4.60;;;1.30;;
21480;SDS011;10902;48.158;8.634;2023-03-11T11:32:38;4.32;;;1.15;;
21480;SDS011;10902;48.158;8.634;2023-03-11T11:35:06;3.45;;;1.10;;
21480;SDS011;10902;48.158;8.634;2023-03-11T11:37:40;3.97;;;0.93;;
21480;SDS011;10902;48.158;8.634;2023-03-11T11:42:39;3.10;;;0.90;;
21480;SDS011;10902;48.158;8.634;2023-03-11T11:47:48;3.83;;;0.98;;
21480;SDS011;10902;48.158;8.634;2023-03-11T11:50:22;4.10;;;1.00;;
21480;SDS011;10902;48.158;8.634;2023-03-11T11:53:00;2.90;;;0.90;;
21480;SDS011;10902;48.158;8.634;2023-03-11T11:55:48;3.80;;;0.95;;
21480;SDS011;10902;48.158;8.634;2023-03-11T11:58:16;3.72;;;1.00;;
21480;SDS011;10902;48.158;8.634;2023-03-11T12:01:07;4.03;;;1.10;;
21480;SDS011;10902;48.158;8.634;2023-03-11T12:12:13;3.60;;;0.90;;
21480;SDS011;10902;48.158;8.634;2023-03-11T12:15:00;4.90;;;1.10;;
21480;SDS011;10902;48.158;8.634;2023-03-11T12:17:46;4.53;;;1.30;;
21480;SDS011;10902;48.158;8.634;2023-03-11T12:28:31;4.20;;;0.90;;
21480;SDS011;10902;48.158;8.634;2023-03-11T12:31:07;4.75;;;1.10;;
21480;SDS011;10902;48.158;8.634;2023-03-11T12:33:36;3.70;;;0.73;;
21480;SDS011;10902;48.158;8.634;2023-03-11T12:36:03;3.92;;;1.20;;
21480;SDS011;10902;48.158;8.634;2023-03-11T12:38:34;3.83;;;1.00;;
21480;SDS011;10902;48.158;8.634;2023-03-11T12:41:06;4.57;;;1.35;;
21480;SDS011;10902;48.158;8.634;2023-03-11T12:46:17;4.03;;;1.13;;
21480;SDS011;10902;48.158;8.634;2023-03-11T12:53:51;4.20;;;1.15;;
21480;SDS011;10902;48.158;8.634;2023-03-11T13:01:43;5.38;;;1.30;;
21480;SDS011;10902;48.158;8.634;2023-03-11T13:04:29;3.45;;;1.15;;
21480;SDS011;10902;48.158;8.634;2023-03-11T13:09:58;4.25;;;1.40;;
21480;SDS011;10902;48.158;8.634;2023-03-11T13:12:50;4.05;;;1.40;;
21480;SDS011;10902;48.158;8.634;2023-03-11T13:17:55;3.17;;;1.25;;
21480;SDS011;10902;48.158;8.634;2023-03-11T13:23:08;3.05;;;0.80;;
21480;SDS011;10902;48.158;8.634;2023-03-11T13:33:41;5.43;;;1.20;;
21480;SDS011;10902;48.158;8.634;2023-03-11T13:39:07;4.30;;;1.58;;
21480;SDS011;10902;48.158;8.634;2023-03-11T13:41:47;5.03;;;2.30;;
21480;SDS011;10902;48.158;8.634;2023-03-11T13:46:48;3.50;;;1.25;;
21480;SDS011;10902;48.158;8.634;2023-03-11T13:49:43;8.60;;;4.45;;
21480;SDS011;10902;48.158;8.634;2023-03-11T13:52:26;5.07;;;1.55;;
21480;SDS011;10902;48.158;8.634;2023-03-11T13:55:14;4.20;;;1.30;;
21480;SDS011;10902;48.158;8.634;2023-03-11T13:57:48;3.28;;;1.20;;
21480;SDS011;10902;48.158;8.634;2023-03-11T14:00:17;3.72;;;1.30;;
21480;SDS011;10902;48.158;8.634;2023-03-11T14:02:56;4.50;;;1.60;;
21480;SDS011;10902;48.158;8.634;2023-03-11T14:05:31;4.43;;;1.40;;
21480;SDS011;10902;48.158;8.634;2023-03-11T14:13:19;3.97;;;1.15;;
21480;SDS011;10902;48.158;8.634;2023-03-11T14:18:39;3.30;;;1.10;;
21480;SDS011;10902;48.158;8.634;2023-03-11T14:21:11;3.75;;;1.38;;
21480;SDS011;10902;48.158;8.634;2023-03-11T14:23:44;4.40;;;1.30;;
21480;SDS011;10902;48.158;8.634;2023-03-11T14:26:13;3.15;;;1.15;;
21480;SDS011;10902;48.158;8.634;2023-03-11T14:28:43;3.38;;;1.20;;
21480;SDS011;10902;48.158;8.634;2023-03-11T14:31:21;2.97;;;1.05;;
21480;SDS011;10902;48.158;8.634;2023-03-11T14:33:56;3.97;;;1.33;;
21480;SDS011;10902;48.158;8.634;2023-03-11T14:36:28;4.80;;;1.27;;
21480;SDS011;10902;48.158;8.634;2023-03-11T14:38:55;3.60;;;1.17;;
21480;SDS011;10902;48.158;8.634;2023-03-11T14:41:20;3.55;;;1.10;;
21480;SDS011;10902;48.158;8.634;2023-03-11T14:43:47;3.65;;;0.82;;
21480;SDS011;10902;48.158;8.634;2023-03-11T14:46:21;3.20;;;0.95;;
21480;SDS011;10902;48.158;8.634;2023-03-11T14:48:52;3.55;;;1.10;;
21480;SDS011;10902;48.158;8.634;2023-03-11T14:51:28;3.30;;;1.20;;
21480;SDS011;10902;48.158;8.634;2023-03-11T14:54:02;4.47;;;1.38;;
21480;SDS011;10902;48.158;8.634;2023-03-11T14:56:40;3.70;;;1.00;;
21480;SDS011;10902;48.158;8.634;2023-03-11T14:59:20;4.32;;;1.27;;
21480;SDS011;10902;48.158;8.634;2023-03-11T15:01:51;5.10;;;1.45;;
21480;SDS011;10902;48.158;8.634;2023-03-11T15:06:56;3.13;;;0.90;;
21480;SDS011;10902;48.158;8.634;2023-03-11T15:09:23;3.38;;;1.08;;
21480;SDS011;10902;48.158;8.634;2023-03-11T15:11:51;6.63;;;1.27;;
21480;SDS011;10902;48.158;8.634;2023-03-11T15:14:20;5.07;;;1.20;;
21480;SDS011;10902;48.158;8.634;2023-03-11T15:16:48;3.38;;;1.20;;
21480;SDS011;10902;48.158;8.634;2023-03-11T15:19:29;3.95;;;1.10;;
21480;SDS011;10902;48.158;8.634;2023-03-11T15:22:32;3.70;;;1.08;;
21480;SDS011;10902;48.158;8.634;2023-03-11T15:24:58;3.38;;;1.30;;
21480;SDS011;10902;48.158;8.634;2023-03-11T15:29:59;3.17;;;1.10;;
21480;SDS011;10902;48.158;8.634;2023-03-11T15:32:36;3.90;;;1.27;;
21480;SDS011;10902;48.158;8.634;2023-03-11T15:37:32;5.18;;;1.20;;
21480;SDS011;10902;48.158;8.634;2023-03-11T15:40:21;5.60;;;1.70;;
21480;SDS011;10902;48.158;8.634;2023-03-11T15:43:06;7.50;;;1.75;;
21480;SDS011;10902;48.158;8.634;2023-03-11T15:45:43;3.65;;;1.50;;
21480;SDS011;10902;48.158;8.634;2023-03-11T15:48:09;5.30;;;1.30;;
21480;SDS011;10902;48.158;8.634;2023-03-11T15:50:35;4.97;;;1.40;;
21480;SDS011;10902;48.158;8.634;2023-03-11T15:53:11;5.10;;;1.52;;
21480;SDS011;10902;48.158;8.634;2023-03-11T15:55:37;5.50;;;1.30;;
21480;SDS011;10902;48.158;8.634;2023-03-11T15:58:04;4.30;;;1.60;;
21480;SDS011;10902;48.158;8.634;2023-03-11T16:00:32;4.95;;;1.50;;
21480;SDS011;10902;48.158;8.634;2023-03-11T16:02:59;6.22;;;1.80;;
21480;SDS011;10902;48.158;8.634;2023-03-11T16:05:25;4.25;;;1.50;;
21480;SDS011;10902;48.158;8.634;2023-03-11T16:07:52;4.90;;;1.60;;
21480;SDS011;10902;48.158;8.634;2023-03-11T16:10:21;3.85;;;1.33;;
21480;SDS011;10902;48.158;8.634;2023-03-11T16:12:52;5.70;;;2.00;;
21480;SDS011;10902;48.158;8.634;2023-03-11T16:15:20;5.70;;;2.03;;
21480;SDS011;10902;48.158;8.634;2023-03-11T16:17:52;7.25;;;2.17;;
21480;SDS011;10902;48.158;8.634;2023-03-11T16:20:20;5.72;;;1.80;;
21480;SDS011;10902;48.158;8.634;2023-03-11T16:22:47;7.20;;;1.70;;
21480;SDS011;10902;48.158;8.634;2023-03-11T16:27:49;6.38;;;1.95;;
21480;SDS011;10902;48.158;8.634;2023-03-11T16:30:17;5.70;;;1.95;;
21480;SDS011;10902;48.158;8.634;2023-03-11T16:32:43;9.73;;;2.00;;
21480;SDS011;10902;48.158;8.634;2023-03-11T16:35:09;5.00;;;1.83;;
21480;SDS011;10902;48.158;8.634;2023-03-11T16:37:36;6.60;;;1.80;;
21480;SDS011;10902;48.158;8.634;2023-03-11T16:40:03;6.63;;;1.80;;
21480;SDS011;10902;48.158;8.634;2023-03-11T16:42:31;7.05;;;1.75;;
21480;SDS011;10902;48.158;8.634;2023-03-11T16:44:57;5.30;;;2.08;;
21480;SDS011;10902;48.158;8.634;2023-03-11T16:47:22;6.97;;;2.00;;
21480;SDS011;10902;48.158;8.634;2023-03-11T16:49:48;6.43;;;1.90;;
21480;SDS011;10902;48.158;8.634;2023-03-11T16:52:17;6.88;;;2.05;;
21480;SDS011;10902;48.158;8.634;2023-03-11T16:54:47;6.07;;;2.22;;
21480;SDS011;10902;48.158;8.634;2023-03-11T16:57:13;4.63;;;1.80;;
21480;SDS011;10902;48.158;8.634;2023-03-11T16:59:39;11.45;;;2.42;;
21480;SDS011;10902;48.158;8.634;2023-03-11T17:02:05;7.28;;;2.03;;